Klang, Malaysia
Current Conditions -  °F | °C
As of 1:00 AM on Sunday 21 Dec 2014 (Local Time) from WMSA Reporting Station
Haze Haze  
Wind Chill: 79°   Ceiling: 28000
Heat Index: 83°   Visibility: 3mi
Dew Point: 77°   Wind: 1mph
Humidity: 94%   Direction: 280°W
Pressure: 29.83"   Gusts: NA
Location:  3.04°N, 101.45°E
Report Text: WMSA 201700Z 28001KT 5000 HZ FEW002 SCT140 BKN280 26/25 Q1010
Loading
Personal Weather Stations






























Interactive Weather Map New forecast layout! Learn more

10-Day Weather Forecast

Advertisements
Track Severe Weather on mobile